sensor_id;sensor_type;location;lat;lon;timestamp;pressure;altitude;pressure_sealevel;temperature;humidity
65897;BME280;52677;50.898;10.854;2023-03-01T00:01:59;99781.84;;;-6.54;100.00
65897;BME280;52677;50.898;10.854;2023-03-01T00:04:00;99788.41;;;-6.61;100.00
65897;BME280;52677;50.898;10.854;2023-03-01T00:06:01;99790.84;;;-6.60;100.00
65897;BME280;52677;50.898;10.854;2023-03-01T00:08:01;99792.97;;;-6.62;100.00
65897;BME280;52677;50.898;10.854;2023-03-01T00:10:02;99802.31;;;-6.64;100.00
65897;BME280;52677;50.898;10.854;2023-03-01T00:12:03;99797.41;;;-6.67;100.00
65897;BME280;52677;50.898;10.854;2023-03-01T00:14:04;99796.00;;;-6.70;100.00
65897;BME280;52677;50.898;10.854;2023-03-01T00:16:09;99795.88;;;-6.75;100.00
65897;BME280;52677;50.898;10.854;2023-03-01T00:18:09;99786.06;;;-6.69;100.00
65897;BME280;52677;50.898;10.854;2023-03-01T00:20:10;99792.84;;;-6.67;100.00
65897;BME280;52677;50.898;10.854;2023-03-01T00:22:11;99786.50;;;-6.72;100.00
65897;BME280;52677;50.898;10.854;2023-03-01T00:24:11;99789.91;;;-6.77;100.00
65897;BME280;52677;50.898;10.854;2023-03-01T00:26:13;99793.06;;;-6.80;100.00
65897;BME280;52677;50.898;10.854;2023-03-01T00:28:14;99787.56;;;-6.85;100.00
65897;BME280;52677;50.898;10.854;2023-03-01T00:30:14;99785.94;;;-6.86;100.00
65897;BME280;52677;50.898;10.854;2023-03-01T00:32:15;99803.34;;;-6.89;100.00
65897;BME280;52677;50.898;10.854;2023-03-01T00:34:15;99793.78;;;-6.85;100.00
65897;BME280;52677;50.898;10.854;2023-03-01T00:36:15;99800.22;;;-6.86;100.00
65897;BME280;52677;50.898;10.854;2023-03-01T00:38:16;99797.19;;;-6.77;100.00
65897;BME280;52677;50.898;10.854;2023-03-01T00:40:16;99790.03;;;-6.72;100.00
65897;BME280;52677;50.898;10.854;2023-03-01T00:42:16;99796.59;;;-6.68;100.00
65897;BME280;52677;50.898;10.854;2023-03-01T00:44:17;99790.50;;;-6.63;100.00
65897;BME280;52677;50.898;10.854;2023-03-01T00:46:20;99797.16;;;-6.54;100.00
65897;BME280;52677;50.898;10.854;2023-03-01T00:48:20;99794.13;;;-6.46;100.00
65897;BME280;52677;50.898;10.854;2023-03-01T00:50:21;99785.47;;;-6.36;100.00
65897;BME280;52677;50.898;10.854;2023-03-01T00:52:21;99788.50;;;-6.33;100.00
65897;BME280;52677;50.898;10.854;2023-03-01T00:54:22;99786.38;;;-6.31;100.00
65897;BME280;52677;50.898;10.854;2023-03-01T00:56:22;99781.81;;;-6.30;100.00
65897;BME280;52677;50.898;10.854;2023-03-01T00:58:22;99786.38;;;-6.31;100.00
65897;BME280;52677;50.898;10.854;2023-03-01T01:00:23;99791.19;;;-6.33;100.00
65897;BME280;52677;50.898;10.854;2023-03-01T01:02:23;99775.97;;;-6.39;100.00
65897;BME280;52677;50.898;10.854;2023-03-01T01:04:24;99776.22;;;-6.40;100.00
65897;BME280;52677;50.898;10.854;2023-03-01T01:06:26;99770.34;;;-6.37;100.00
65897;BME280;52677;50.898;10.854;2023-03-01T01:08:27;99781.59;;;-6.29;100.00
65897;BME280;52677;50.898;10.854;2023-03-01T01:10:27;99771.72;;;-6.23;100.00
65897;BME280;52677;50.898;10.854;2023-03-01T01:12:28;99767.75;;;-6.20;100.00
65897;BME280;52677;50.898;10.854;2023-03-01T01:14:28;99775.13;;;-6.16;100.00
65897;BME280;52677;50.898;10.854;2023-03-01T01:16:29;99770.06;;;-6.12;100.00
65897;BME280;52677;50.898;10.854;2023-03-01T01:18:29;99765.28;;;-6.10;100.00
65897;BME280;52677;50.898;10.854;2023-03-01T01:20:30;99767.50;;;-6.07;100.00
65897;BME280;52677;50.898;10.854;2023-03-01T01:22:30;99760.34;;;-6.02;100.00
65897;BME280;52677;50.898;10.854;2023-03-01T01:24:30;99756.00;;;-6.03;100.00
65897;BME280;52677;50.898;10.854;2023-03-01T01:26:32;99755.75;;;-6.01;100.00
65897;BME280;52677;50.898;10.854;2023-03-01T01:28:34;99749.56;;;-6.02;100.00
65897;BME280;52677;50.898;10.854;2023-03-01T01:30:34;99746.28;;;-6.04;100.00
65897;BME280;52677;50.898;10.854;2023-03-01T01:32:35;99748.13;;;-6.04;100.00
65897;BME280;52677;50.898;10.854;2023-03-01T01:34:35;99746.75;;;-6.07;100.00
65897;BME280;52677;50.898;10.854;2023-03-01T01:36:35;99744.63;;;-6.05;100.00
65897;BME280;52677;50.898;10.854;2023-03-01T01:38:37;99748.97;;;-6.04;100.00
65897;BME280;52677;50.898;10.854;2023-03-01T01:40:45;99739.97;;;-6.09;100.00
65897;BME280;52677;50.898;10.854;2023-03-01T01:42:46;99741.59;;;-6.08;100.00
65897;BME280;52677;50.898;10.854;2023-03-01T01:44:47;99744.78;;;-6.11;100.00
65897;BME280;52677;50.898;10.854;2023-03-01T01:49:10;99730.81;;;-6.08;100.00
65897;BME280;52677;50.898;10.854;2023-03-01T01:51:18;99721.94;;;-6.09;100.00
65897;BME280;52677;50.898;10.854;2023-03-01T01:53:20;99722.25;;;-6.05;100.00
65897;BME280;52677;50.898;10.854;2023-03-01T01:55:26;99719.66;;;-6.00;100.00
65897;BME280;52677;50.898;10.854;2023-03-01T01:57:33;99719.91;;;-6.02;100.00
65897;BME280;52677;50.898;10.854;2023-03-01T01:59:36;99711.47;;;-6.05;100.00
65897;BME280;52677;50.898;10.854;2023-03-01T02:01:38;99716.66;;;-6.04;100.00
65897;BME280;52677;50.898;10.854;2023-03-01T02:03:39;99720.16;;;-6.03;100.00
65897;BME280;52677;50.898;10.854;2023-03-01T02:05:43;99719.34;;;-6.04;100.00
65897;BME280;52677;50.898;10.854;2023-03-01T02:07:45;99710.91;;;-6.07;100.00
65897;BME280;52677;50.898;10.854;2023-03-01T02:09:48;99700.00;;;-6.12;100.00
65897;BME280;52677;50.898;10.854;2023-03-01T02:11:50;99701.44;;;-6.22;100.00
65897;BME280;52677;50.898;10.854;2023-03-01T02:13:51;99694.34;;;-6.28;100.00
65897;BME280;52677;50.898;10.854;2023-03-01T02:15:53;99687.91;;;-6.38;100.00
65897;BME280;52677;50.898;10.854;2023-03-01T02:17:54;99686.75;;;-6.42;100.00
65897;BME280;52677;50.898;10.854;2023-03-01T02:20:14;99679.63;;;-6.48;100.00
65897;BME280;52677;50.898;10.854;2023-03-01T02:22:27;99686.56;;;-6.53;100.00
65897;BME280;52677;50.898;10.854;2023-03-01T02:26:48;99676.25;;;-6.56;100.00
65897;BME280;52677;50.898;10.854;2023-03-01T02:28:50;99673.47;;;-6.61;100.00
65897;BME280;52677;50.898;10.854;2023-03-01T02:30:51;99680.13;;;-6.63;100.00
65897;BME280;52677;50.898;10.854;2023-03-01T02:33:09;99685.50;;;-6.63;100.00
65897;BME280;52677;50.898;10.854;2023-03-01T02:35:13;99685.75;;;-6.65;100.00
65897;BME280;52677;50.898;10.854;2023-03-01T02:37:15;99682.22;;;-6.65;100.00
65897;BME280;52677;50.898;10.854;2023-03-01T02:39:28;99686.31;;;-6.63;100.00
65897;BME280;52677;50.898;10.854;2023-03-01T02:41:33;99684.94;;;-6.65;100.00
65897;BME280;52677;50.898;10.854;2023-03-01T02:43:35;99691.13;;;-6.65;100.00
65897;BME280;52677;50.898;10.854;2023-03-01T02:45:36;99692.75;;;-6.64;100.00
65897;BME280;52677;50.898;10.854;2023-03-01T02:47:36;99691.50;;;-6.61;100.00
65897;BME280;52677;50.898;10.854;2023-03-01T02:49:37;99697.78;;;-6.56;100.00
65897;BME280;52677;50.898;10.854;2023-03-01T02:54:26;99681.13;;;-6.41;100.00
65897;BME280;52677;50.898;10.854;2023-03-01T02:56:29;99685.91;;;-6.31;100.00
65897;BME280;52677;50.898;10.854;2023-03-01T02:58:29;99682.06;;;-6.35;100.00
65897;BME280;52677;50.898;10.854;2023-03-01T03:00:36;99682.53;;;-6.38;100.00
65897;BME280;52677;50.898;10.854;2023-03-01T03:02:40;99690.38;;;-6.37;100.00
65897;BME280;52677;50.898;10.854;2023-03-01T03:04:40;99678.56;;;-6.36;100.00
65897;BME280;52677;50.898;10.854;2023-03-01T03:06:41;99685.56;;;-6.35;100.00
65897;BME280;52677;50.898;10.854;2023-03-01T03:08:41;99686.72;;;-6.31;100.00
65897;BME280;52677;50.898;10.854;2023-03-01T03:10:42;99678.88;;;-6.32;100.00
65897;BME280;52677;50.898;10.854;2023-03-01T03:12:43;99684.75;;;-6.35;100.00
65897;BME280;52677;50.898;10.854;2023-03-01T03:14:43;99681.81;;;-6.34;100.00
65897;BME280;52677;50.898;10.854;2023-03-01T03:16:46;99680.66;;;-6.38;100.00
65897;BME280;52677;50.898;10.854;2023-03-01T03:18:47;99670.94;;;-6.39;100.00
65897;BME280;52677;50.898;10.854;2023-03-01T03:20:48;99676.94;;;-6.37;100.00
65897;BME280;52677;50.898;10.854;2023-03-01T03:22:55;99676.94;;;-6.37;100.00
65897;BME280;52677;50.898;10.854;2023-03-01T03:24:55;99676.00;;;-6.42;100.00
65897;BME280;52677;50.898;10.854;2023-03-01T03:26:56;99678.47;;;-6.53;100.00
65897;BME280;52677;50.898;10.854;2023-03-01T03:28:56;99689.13;;;-6.58;100.00
65897;BME280;52677;50.898;10.854;2023-03-01T03:30:57;99691.69;;;-6.63;100.00
65897;BME280;52677;50.898;10.854;2023-03-01T03:32:59;99699.94;;;-6.69;100.00
65897;BME280;52677;50.898;10.854;2023-03-01T03:34:59;99696.88;;;-6.61;100.00
65897;BME280;52677;50.898;10.854;2023-03-01T03:37:00;99692.75;;;-6.64;100.00
65897;BME280;52677;50.898;10.854;2023-03-01T03:39:00;99696.19;;;-6.68;100.00
65897;BME280;52677;50.898;10.854;2023-03-01T03:41:06;99685.53;;;-6.75;100.00
65897;BME280;52677;50.898;10.854;2023-03-01T03:43:10;99678.97;;;-6.79;100.00
65897;BME280;52677;50.898;10.854;2023-03-01T03:45:10;99672.75;;;-6.80;100.00
65897;BME280;52677;50.898;10.854;2023-03-01T03:47:11;99674.88;;;-6.82;100.00
65897;BME280;52677;50.898;10.854;2023-03-01T03:49:11;99666.47;;;-6.85;100.00
65897;BME280;52677;50.898;10.854;2023-03-01T03:51:13;99665.66;;;-6.86;100.00
65897;BME280;52677;50.898;10.854;2023-03-01T03:53:14;99674.19;;;-6.89;100.00
65897;BME280;52677;50.898;10.854;2023-03-01T03:55:14;99671.63;;;-6.84;100.00
65897;BME280;52677;50.898;10.854;2023-03-01T03:57:19;99669.97;;;-6.85;100.00
65897;BME280;52677;50.898;10.854;2023-03-01T03:59:21;99666.09;;;-6.89;100.00
65897;BME280;52677;50.898;10.854;2023-03-01T04:01:21;99659.34;;;-6.91;100.00
65897;BME280;52677;50.898;10.854;2023-03-01T04:03:22;99662.97;;;-6.97;100.00
65897;BME280;52677;50.898;10.854;2023-03-01T04:05:23;99671.03;;;-6.97;100.00
65897;BME280;52677;50.898;10.854;2023-03-01T04:07:23;99668.94;;;-7.07;100.00
65897;BME280;52677;50.898;10.854;2023-03-01T04:09:24;99674.19;;;-7.00;100.00
65897;BME280;52677;50.898;10.854;2023-03-01T04:11:24;99667.53;;;-7.10;100.00
65897;BME280;52677;50.898;10.854;2023-03-01T04:13:27;99666.34;;;-7.14;100.00
65897;BME280;52677;50.898;10.854;2023-03-01T04:15:28;99666.59;;;-7.15;100.00
65897;BME280;52677;50.898;10.854;2023-03-01T04:17:28;99657.69;;;-7.16;100.00
65897;BME280;52677;50.898;10.854;2023-03-01T04:19:29;99660.63;;;-7.17;100.00
65897;BME280;52677;50.898;10.854;2023-03-01T04:21:29;99657.09;;;-7.29;100.00
65897;BME280;52677;50.898;10.854;2023-03-01T04:23:30;99653.03;;;-7.32;100.00
65897;BME280;52677;50.898;10.854;2023-03-01T04:25:30;99659.00;;;-7.18;100.00
65897;BME280;52677;50.898;10.854;2023-03-01T04:27:30;99649.50;;;-7.21;100.00
65897;BME280;52677;50.898;10.854;2023-03-01T04:29:31;99654.31;;;-7.23;100.00
65897;BME280;52677;50.898;10.854;2023-03-01T04:31:31;99652.78;;;-7.30;100.00
65897;BME280;52677;50.898;10.854;2023-03-01T04:33:31;99669.97;;;-7.31;100.00
65897;BME280;52677;50.898;10.854;2023-03-01T04:35:32;99658.75;;;-7.40;100.00
65897;BME280;52677;50.898;10.854;2023-03-01T04:37:34;99663.19;;;-7.34;100.00
65897;BME280;52677;50.898;10.854;2023-03-01T04:39:35;99660.75;;;-7.36;100.00
65897;BME280;52677;50.898;10.854;2023-03-01T04:41:45;99656.41;;;-7.37;100.00
65897;BME280;52677;50.898;10.854;2023-03-01T04:43:46;99649.38;;;-7.38;100.00
65897;BME280;52677;50.898;10.854;2023-03-01T04:45:46;99660.38;;;-7.39;100.00
65897;BME280;52677;50.898;10.854;2023-03-01T04:47:46;99651.84;;;-7.48;100.00
65897;BME280;52677;50.898;10.854;2023-03-01T04:49:47;99655.34;;;-7.47;100.00
65897;BME280;52677;50.898;10.854;2023-03-01T04:51:47;99657.09;;;-7.53;100.00
65897;BME280;52677;50.898;10.854;2023-03-01T04:53:48;99644.94;;;-7.55;100.00
65897;BME280;52677;50.898;10.854;2023-03-01T04:55:48;99655.56;;;-7.49;100.00
65897;BME280;52677;50.898;10.854;2023-03-01T04:57:49;99653.38;;;-7.52;100.00
65897;BME280;52677;50.898;10.854;2023-03-01T04:59:49;99653.56;;;-7.53;100.00
65897;BME280;52677;50.898;10.854;2023-03-01T05:01:54;99652.97;;;-7.67;100.00
65897;BME280;52677;50.898;10.854;2023-03-01T05:03:55;99652.72;;;-7.77;100.00
65897;BME280;52677;50.898;10.854;2023-03-01T05:05:58;99646.63;;;-7.84;100.00
65897;BME280;52677;50.898;10.854;2023-03-01T05:08:01;99646.97;;;-7.93;100.00
65897;BME280;52677;50.898;10.854;2023-03-01T05:10:02;99646.97;;;-7.93;100.00
65897;BME280;52677;50.898;10.854;2023-03-01T05:12:03;99645.34;;;-7.94;100.00
65897;BME280;52677;50.898;10.854;2023-03-01T05:14:05;99636.13;;;-7.86;100.00
65897;BME280;52677;50.898;10.854;2023-03-01T05:16:07;99635.22;;;-7.68;100.00
65897;BME280;52677;50.898;10.854;2023-03-01T05:18:11;99634.75;;;-7.65;100.00
65897;BME280;52677;50.898;10.854;2023-03-01T05:20:11;99643.28;;;-7.68;100.00
65897;BME280;52677;50.898;10.854;2023-03-01T05:22:11;99639.22;;;-7.59;100.00
65897;BME280;52677;50.898;10.854;2023-03-01T05:24:12;99629.03;;;-7.57;100.00
65897;BME280;52677;50.898;10.854;2023-03-01T05:26:13;99630.31;;;-7.59;100.00
65897;BME280;52677;50.898;10.854;2023-03-01T05:28:14;99634.28;;;-7.62;100.00
65897;BME280;52677;50.898;10.854;2023-03-01T05:30:15;99641.53;;;-7.63;100.00
65897;BME280;52677;50.898;10.854;2023-03-01T05:32:16;99630.31;;;-7.59;100.00
65897;BME280;52677;50.898;10.854;2023-03-01T05:34:16;99632.06;;;-7.65;100.00
65897;BME280;52677;50.898;10.854;2023-03-01T05:36:16;99642.81;;;-7.65;100.00
65897;BME280;52677;50.898;10.854;2023-03-01T05:38:18;99630.91;;;-7.69;100.00
65897;BME280;52677;50.898;10.854;2023-03-01T05:40:21;99637.53;;;-7.72;100.00
65897;BME280;52677;50.898;10.854;2023-03-01T05:42:22;99637.56;;;-7.60;100.00
65897;BME280;52677;50.898;10.854;2023-03-01T05:44:23;99636.38;;;-7.64;100.00
65897;BME280;52677;50.898;10.854;2023-03-01T05:46:24;99634.19;;;-7.55;100.00
65897;BME280;52677;50.898;10.854;2023-03-01T05:48:24;99632.78;;;-7.58;100.00
65897;BME280;52677;50.898;10.854;2023-03-01T05:50:26;99627.50;;;-7.65;100.00
65897;BME280;52677;50.898;10.854;2023-03-01T05:52:28;99635.94;;;-7.61;100.00
65897;BME280;52677;50.898;10.854;2023-03-01T05:54:28;99632.41;;;-7.73;100.00
65897;BME280;52677;50.898;10.854;2023-03-01T05:56:28;99636.03;;;-7.68;100.00
65897;BME280;52677;50.898;10.854;2023-03-01T05:58:29;99638.72;;;-7.68;100.00
65897;BME280;52677;50.898;10.854;2023-03-01T06:00:30;99633.34;;;-7.68;100.00
65897;BME280;52677;50.898;10.854;2023-03-01T06:02:31;99641.03;;;-7.71;100.00
65897;BME280;52677;50.898;10.854;2023-03-01T06:04:31;99630.88;;;-7.81;100.00
65897;BME280;52677;50.898;10.854;2023-03-01T06:06:36;99642.44;;;-7.80;100.00
65897;BME280;52677;50.898;10.854;2023-03-01T06:08:39;99632.06;;;-7.77;100.00
65897;BME280;52677;50.898;10.854;2023-03-01T06:10:40;99648.28;;;-7.72;100.00
65897;BME280;52677;50.898;10.854;2023-03-01T06:12:41;99641.75;;;-7.76;100.00
65897;BME280;52677;50.898;10.854;2023-03-01T06:14:42;99636.81;;;-7.79;100.00
65897;BME280;52677;50.898;10.854;2023-03-01T06:16:42;99641.75;;;-7.76;100.00
65897;BME280;52677;50.898;10.854;2023-03-01T06:18:43;99638.34;;;-7.71;100.00
65897;BME280;52677;50.898;10.854;2023-03-01T06:20:43;99638.34;;;-7.71;100.00
65897;BME280;52677;50.898;10.854;2023-03-01T06:22:44;99644.53;;;-7.71;100.00
65897;BME280;52677;50.898;10.854;2023-03-01T06:24:44;99652.97;;;-7.67;100.00
65897;BME280;52677;50.898;10.854;2023-03-01T06:26:45;99653.22;;;-7.69;100.00
65897;BME280;52677;50.898;10.854;2023-03-01T06:28:45;99649.56;;;-7.74;100.00
65897;BME280;52677;50.898;10.854;2023-03-01T06:30:46;99647.13;;;-7.76;100.00
65897;BME280;52677;50.898;10.854;2023-03-01T06:32:46;99638.13;;;-7.70;100.00
65897;BME280;52677;50.898;10.854;2023-03-01T06:34:47;99640.59;;;-7.68;100.00
65897;BME280;52677;50.898;10.854;2023-03-01T06:36:47;99638.13;;;-7.70;100.00
65897;BME280;52677;50.898;10.854;2023-03-01T06:38:47;99638.00;;;-7.75;100.00
65897;BME280;52677;50.898;10.854;2023-03-01T06:40:52;99638.69;;;-7.79;100.00
65897;BME280;52677;50.898;10.854;2023-03-01T06:42:54;99635.75;;;-7.78;100.00
65897;BME280;52677;50.898;10.854;2023-03-01T06:44:54;99638.00;;;-7.75;100.00
65897;BME280;52677;50.898;10.854;2023-03-01T06:46:55;99649.72;;;-7.69;100.00
65897;BME280;52677;50.898;10.854;2023-03-01T06:48:55;99653.31;;;-7.64;100.00
65897;BME280;52677;50.898;10.854;2023-03-01T06:50:58;99650.31;;;-7.55;100.00
65897;BME280;52677;50.898;10.854;2023-03-01T06:52:58;99650.69;;;-7.52;100.00
65897;BME280;52677;50.898;10.854;2023-03-01T06:54:59;99659.66;;;-7.46;100.00
65897;BME280;52677;50.898;10.854;2023-03-01T06:57:00;99648.66;;;-7.45;100.00
65897;BME280;52677;50.898;10.854;2023-03-01T06:59:00;99654.66;;;-7.43;100.00
65897;BME280;52677;50.898;10.854;2023-03-01T07:01:05;99657.59;;;-7.32;100.00
65897;BME280;52677;50.898;10.854;2023-03-01T07:03:05;99660.41;;;-7.27;100.00
65897;BME280;52677;50.898;10.854;2023-03-01T07:05:06;99654.53;;;-7.24;100.00
65897;BME280;52677;50.898;10.854;2023-03-01T07:07:07;99657.47;;;-7.26;100.00
65897;BME280;52677;50.898;10.854;2023-03-01T07:09:07;99657.00;;;-7.23;100.00
65897;BME280;52677;50.898;10.854;2023-03-01T07:11:07;99657.56;;;-7.21;100.00
65897;BME280;52677;50.898;10.854;2023-03-01T07:13:08;99660.88;;;-7.19;100.00
65897;BME280;52677;50.898;10.854;2023-03-01T07:15:09;99653.63;;;-7.18;100.00
65897;BME280;52677;50.898;10.854;2023-03-01T07:17:10;99651.84;;;-7.13;100.00
65897;BME280;52677;50.898;10.854;2023-03-01T07:19:10;99652.44;;;-7.11;100.00
65897;BME280;52677;50.898;10.854;2023-03-01T07:21:12;99648.81;;;-7.04;100.00
65897;BME280;52677;50.898;10.854;2023-03-01T07:23:13;99637.34;;;-7.00;100.00
65897;BME280;52677;50.898;10.854;2023-03-01T07:25:13;99642.25;;;-6.97;100.00
65897;BME280;52677;50.898;10.854;2023-03-01T07:27:14;99639.69;;;-6.92;100.00
65897;BME280;52677;50.898;10.854;2023-03-01T07:29:14;99638.63;;;-6.91;100.00
65897;BME280;52677;50.898;10.854;2023-03-01T07:31:14;99638.25;;;-6.83;100.00
65897;BME280;52677;50.898;10.854;2023-03-01T07:33:15;99631.81;;;-6.82;100.00
65897;BME280;52677;50.898;10.854;2023-03-01T07:35:15;99628.66;;;-6.79;100.00
65897;BME280;52677;50.898;10.854;2023-03-01T07:37:16;99629.34;;;-6.71;100.00
65897;BME280;52677;50.898;10.854;2023-03-01T07:39:16;99632.16;;;-6.66;100.00
65897;BME280;52677;50.898;10.854;2023-03-01T07:41:17;99632.28;;;-6.61;100.00
65897;BME280;52677;50.898;10.854;2023-03-01T07:43:17;99630.38;;;-6.61;100.00
65897;BME280;52677;50.898;10.854;2023-03-01T07:45:18;99634.47;;;-6.58;100.00
65897;BME280;52677;50.898;10.854;2023-03-01T07:47:18;99637.72;;;-6.56;100.00
65897;BME280;52677;50.898;10.854;2023-03-01T07:49:18;99637.84;;;-6.51;100.00
65897;BME280;52677;50.898;10.854;2023-03-01T07:51:19;99640.63;;;-6.46;100.00
65897;BME280;52677;50.898;10.854;2023-03-01T07:53:19;99641.81;;;-6.42;100.00
65897;BME280;52677;50.898;10.854;2023-03-01T07:55:19;99647.06;;;-6.35;100.00
65897;BME280;52677;50.898;10.854;2023-03-01T07:57:20;99640.69;;;-6.29;100.00
65897;BME280;52677;50.898;10.854;2023-03-01T07:59:20;99642.94;;;-6.26;100.00
65897;BME280;52677;50.898;10.854;2023-03-01T08:01:21;99633.88;;;-6.20;100.00
65897;BME280;52677;50.898;10.854;2023-03-01T08:03:21;99639.34;;;-6.15;100.00
65897;BME280;52677;50.898;10.854;2023-03-01T08:05:22;99631.63;;;-6.11;100.00
65897;BME280;52677;50.898;10.854;2023-03-01T08:07:22;99636.84;;;-6.05;100.00
65897;BME280;52677;50.898;10.854;2023-03-01T08:09:23;99636.13;;;-6.00;100.00
65897;BME280;52677;50.898;10.854;2023-03-01T08:11:23;99640.56;;;-5.94;100.00
65897;BME280;52677;50.898;10.854;2023-03-01T08:13:24;99636.03;;;-5.88;100.00
65897;BME280;52677;50.898;10.854;2023-03-01T08:15:24;99635.06;;;-5.82;100.00
65897;BME280;52677;50.898;10.854;2023-03-01T08:17:25;99641.13;;;-5.75;100.00
65897;BME280;52677;50.898;10.854;2023-03-01T08:19:25;99634.53;;;-5.68;100.00
65897;BME280;52677;50.898;10.854;2023-03-01T08:21:25;99625.94;;;-5.65;100.00
65897;BME280;52677;50.898;10.854;2023-03-01T08:23:26;99637.63;;;-5.59;100.00
65897;BME280;52677;50.898;10.854;2023-03-01T08:25:26;99636.06;;;-5.55;100.00
65897;BME280;52677;50.898;10.854;2023-03-01T08:27:26;99632.91;;;-5.52;100.00
65897;BME280;52677;50.898;10.854;2023-03-01T08:29:27;99631.31;;;-5.48;100.00
65897;BME280;52677;50.898;10.854;2023-03-01T08:31:45;99622.50;;;-5.43;100.00
65897;BME280;52677;50.898;10.854;2023-03-01T08:33:47;99627.75;;;-5.37;100.00
65897;BME280;52677;50.898;10.854;2023-03-01T08:36:05;99631.09;;;-5.29;100.00
65897;BME280;52677;50.898;10.854;2023-03-01T08:38:06;99624.22;;;-5.20;100.00
65897;BME280;52677;50.898;10.854;2023-03-01T08:40:07;99629.19;;;-5.12;100.00
65897;BME280;52677;50.898;10.854;2023-03-01T08:42:10;99632.28;;;-5.03;100.00
65897;BME280;52677;50.898;10.854;2023-03-01T08:44:12;99625.41;;;-4.94;100.00
65897;BME280;52677;50.898;10.854;2023-03-01T08:46:12;99625.53;;;-4.84;100.00
65897;BME280;52677;50.898;10.854;2023-03-01T08:48:13;99615.63;;;-4.78;100.00
65897;BME280;52677;50.898;10.854;2023-03-01T08:50:13;99624.03;;;-4.75;100.00
65897;BME280;52677;50.898;10.854;2023-03-01T08:52:14;99623.88;;;-4.68;100.00
65897;BME280;52677;50.898;10.854;2023-03-01T08:54:19;99620.72;;;-4.60;100.00
65897;BME280;52677;50.898;10.854;2023-03-01T08:56:20;99622.72;;;-4.50;100.00
65897;BME280;52677;50.898;10.854;2023-03-01T08:58:21;99615.25;;;-4.43;100.00
65897;BME280;52677;50.898;10.854;2023-03-01T09:00:21;99596.41;;;-4.38;100.00
65897;BME280;52677;50.898;10.854;2023-03-01T09:02:22;99607.81;;;-4.31;100.00
65897;BME280;52677;50.898;10.854;2023-03-01T09:04:22;99601.78;;;-4.16;100.00
65897;BME280;52677;50.898;10.854;2023-03-01T09:06:23;99601.88;;;-4.06;100.00
65897;BME280;52677;50.898;10.854;2023-03-01T09:08:23;99604.94;;;-3.98;100.00
65897;BME280;52677;50.898;10.854;2023-03-01T09:10:23;99599.59;;;-3.92;100.00
65897;BME280;52677;50.898;10.854;2023-03-01T09:12:24;99601.00;;;-3.85;100.00
65897;BME280;52677;50.898;10.854;2023-03-01T09:14:25;99591.06;;;-3.79;100.00
65897;BME280;52677;50.898;10.854;2023-03-01T09:16:25;99591.66;;;-3.72;100.00
65897;BME280;52677;50.898;10.854;2023-03-01T09:18:25;99591.44;;;-3.65;100.00
65897;BME280;52677;50.898;10.854;2023-03-01T09:20:26;99592.28;;;-3.60;100.00
65897;BME280;52677;50.898;10.854;2023-03-01T09:22:26;99587.97;;;-3.56;100.00
65897;BME280;52677;50.898;10.854;2023-03-01T09:24:26;99591.28;;;-3.54;100.00
65897;BME280;52677;50.898;10.854;2023-03-01T09:26:27;99581.28;;;-3.48;100.00
65897;BME280;52677;50.898;10.854;2023-03-01T09:28:27;99584.31;;;-3.40;100.00
65897;BME280;52677;50.898;10.854;2023-03-01T09:30:28;99581.41;;;-3.33;100.00
65897;BME280;52677;50.898;10.854;2023-03-01T09:32:30;99566.03;;;-3.27;100.00
65897;BME280;52677;50.898;10.854;2023-03-01T09:34:31;99574.75;;;-3.15;100.00
65897;BME280;52677;50.898;10.854;2023-03-01T09:36:31;99576.97;;;-3.07;100.00
65897;BME280;52677;50.898;10.854;2023-03-01T09:38:31;99571.31;;;-3.00;100.00
65897;BME280;52677;50.898;10.854;2023-03-01T09:40:32;99566.47;;;-2.93;100.00
65897;BME280;52677;50.898;10.854;2023-03-01T09:42:34;99561.38;;;-2.85;100.00
65897;BME280;52677;50.898;10.854;2023-03-01T09:44:44;99560.06;;;-2.77;100.00
65897;BME280;52677;50.898;10.854;2023-03-01T09:46:46;99563.13;;;-2.63;100.00
65897;BME280;52677;50.898;10.854;2023-03-01T09:49:01;99560.69;;;-2.55;100.00
65897;BME280;52677;50.898;10.854;2023-03-01T09:51:09;99552.59;;;-2.44;100.00
65897;BME280;52677;50.898;10.854;2023-03-01T09:53:46;99565.09;;;-2.38;100.00
65897;BME280;52677;50.898;10.854;2023-03-01T09:56:09;99560.47;;;-2.33;100.00
65897;BME280;52677;50.898;10.854;2023-03-01T09:58:29;99560.78;;;-2.24;100.00
65897;BME280;52677;50.898;10.854;2023-03-01T10:00:44;99550.75;;;-2.23;100.00
65897;BME280;52677;50.898;10.854;2023-03-01T10:05:25;99557.00;;;-2.18;100.00
65897;BME280;52677;50.898;10.854;2023-03-01T10:07:37;99554.59;;;-2.14;100.00
65897;BME280;52677;50.898;10.854;2023-03-01T10:09:41;99551.06;;;-2.10;100.00
65897;BME280;52677;50.898;10.854;2023-03-01T10:11:48;99551.88;;;-1.99;100.00
65897;BME280;52677;50.898;10.854;2023-03-01T10:14:30;99553.22;;;-1.91;100.00
65897;BME280;52677;50.898;10.854;2023-03-01T10:16:52;99560.31;;;-1.75;100.00
65897;BME280;52677;50.898;10.854;2023-03-01T10:19:03;99551.06;;;-1.59;100.00
65897;BME280;52677;50.898;10.854;2023-03-01T10:21:13;99531.81;;;-1.52;100.00
65897;BME280;52677;50.898;10.854;2023-03-01T10:23:15;99538.03;;;-1.42;100.00
65897;BME280;52677;50.898;10.854;2023-03-01T10:25:23;99547.28;;;-1.37;100.00
65897;BME280;52677;50.898;10.854;2023-03-01T10:27:37;99538.03;;;-1.31;100.00
65897;BME280;52677;50.898;10.854;2023-03-01T10:32:13;99544.78;;;-1.14;100.00
65897;BME280;52677;50.898;10.854;2023-03-01T10:34:19;99531.16;;;-0.98;100.00
65897;BME280;52677;50.898;10.854;2023-03-01T10:36:21;99525.41;;;-0.87;99.60
65897;BME280;52677;50.898;10.854;2023-03-01T10:38:21;99523.44;;;-0.66;99.51
65897;BME280;52677;50.898;10.854;2023-03-01T10:40:22;99526.06;;;-0.50;100.00
65897;BME280;52677;50.898;10.854;2023-03-01T10:42:29;99523.84;;;-0.38;96.16
65897;BME280;52677;50.898;10.854;2023-03-01T10:44:49;99523.25;;;-0.30;94.91